Time;durP1;ratioP1;P1;durP2;ratioP2;P2;SDS_P1;SDS_P2;PMS_P1;PMS_P2;Temp;Humidity;BMP_temperature;BMP_pressure;BME280_temperature;BME280_humidity;BME280_pressure;Samples;Min_cycle;Max_cycle;Signal;HPM_P1;HPM_P2
2023/11/19 00:01:10;;;;;;;8.27;5.32;;;;;;;16.44;71.39;100819.81;6135855;23;124866;-81
2023/11/19 00:03:37;;;;;;;7.68;5.05;;;;;;;16.46;71.38;100812.56;6125207;23;112208;-81
2023/11/19 00:06:05;;;;;;;5.70;4.85;;;;;;;16.47;71.28;100808.91;6120366;23;114125;-82
2023/11/19 00:08:36;;;;;;;7.60;5.28;;;;;;;16.49;71.25;100806.13;6133428;23;123076;-82
2023/11/19 00:11:05;;;;;;;8.25;5.60;;;;;;;16.50;71.32;100807.81;6132097;23;122093;-82
2023/11/19 00:13:32;;;;;;;8.10;5.35;;;;;;;16.52;71.25;100801.44;6115944;23;112552;-81
2023/11/19 00:15:59;;;;;;;8.38;5.38;;;;;;;16.53;71.03;100802.28;6118339;23;114127;-81
2023/11/19 00:18:27;;;;;;;9.30;5.90;;;;;;;16.53;71.28;100797.78;6117939;23;124004;-81
2023/11/19 00:20:54;;;;;;;6.55;5.53;;;;;;;16.55;71.26;100790.50;6091704;23;124108;-81
2023/11/19 00:23:21;;;;;;;9.75;6.20;;;;;;;16.57;71.07;100792.22;6118213;23;114252;-82
2023/11/19 00:25:48;;;;;;;10.50;6.07;;;;;;;16.59;71.10;100784.94;6117898;23;113412;-81
2023/11/19 00:28:15;;;;;;;11.20;5.97;;;;;;;16.59;71.10;100768.91;6117116;23;124028;-81
2023/11/19 00:30:43;;;;;;;8.70;6.03;;;;;;;16.60;70.93;100766.13;6117002;23;123420;-81
2023/11/19 00:33:10;;;;;;;9.73;6.05;;;;;;;16.61;71.29;100769.63;6119067;23;115021;-81
2023/11/19 00:35:38;;;;;;;9.25;5.53;;;;;;;16.61;71.18;100772.31;6118835;23;113991;-82
2023/11/19 00:38:05;;;;;;;12.70;5.55;;;;;;;16.61;71.08;100766.97;6122216;23;123660;-81
2023/11/19 00:40:32;;;;;;;9.75;5.57;;;;;;;16.64;71.04;100772.09;6128819;23;124284;-81
2023/11/19 00:43:00;;;;;;;9.95;5.80;;;;;;;16.63;70.97;100770.38;6132406;23;115633;-82
2023/11/19 00:45:28;;;;;;;9.73;5.22;;;;;;;16.65;70.86;100768.44;6134228;23;115431;-81
2023/11/19 00:47:55;;;;;;;11.90;5.20;;;;;;;16.66;70.83;100764.81;6105231;23;125043;-80
2023/11/19 00:50:22;;;;;;;11.52;5.78;;;;;;;16.66;71.06;100771.00;6131354;23;123399;-82
2023/11/19 00:52:51;;;;;;;10.38;5.70;;;;;;;16.68;70.90;100778.94;6131250;23;114688;-82
2023/11/19 00:55:18;;;;;;;10.73;5.38;;;;;;;16.69;71.00;100753.91;6131972;23;113409;-82
2023/11/19 00:57:45;;;;;;;11.95;5.20;;;;;;;16.70;70.68;100760.97;6130912;23;124297;-83
2023/11/19 01:00:18;;;;;;;10.60;5.47;;;;;;;16.70;70.60;100761.81;6133809;23;124166;-81
2023/11/19 01:02:49;;;;;;;13.03;5.20;;;;;;;16.71;70.87;100757.34;6107432;23;113615;-84
2023/11/19 01:05:21;;;;;;;10.25;5.18;;;;;;;16.72;70.70;100762.53;6131277;23;113380;-82
2023/11/19 01:07:50;;;;;;;10.13;5.22;;;;;;;16.73;70.77;100766.09;6106036;23;123225;-80
2023/11/19 01:10:18;;;;;;;11.20;5.47;;;;;;;16.74;70.67;100787.38;6106163;23;122689;-81
2023/11/19 01:12:46;;;;;;;11.88;5.25;;;;;;;16.75;70.59;100769.50;6106082;23;112846;-82
2023/11/19 01:15:13;;;;;;;11.65;4.63;;;;;;;16.77;70.65;100766.72;6131819;23;112770;-83
2023/11/19 01:17:40;;;;;;;10.95;4.70;;;;;;;16.78;70.56;100769.28;6131491;23;124668;-83
2023/11/19 01:20:20;;;;;;;10.05;4.80;;;;;;;16.78;70.34;100769.28;6110177;23;123579;-81
2023/11/19 01:22:48;;;;;;;11.57;4.60;;;;;;;16.79;70.39;100760.28;6130999;23;114557;-82
2023/11/19 01:25:17;;;;;;;15.48;4.72;;;;;;;16.79;70.39;100754.94;6133034;23;113284;-81
2023/11/19 01:27:44;;;;;;;16.63;4.13;;;;;;;16.82;70.23;100760.13;6133960;23;124476;-80
2023/11/19 01:30:15;;;;;;;11.55;4.38;;;;;;;16.81;70.39;100769.06;6107716;23;122230;-80
2023/11/19 01:32:42;;;;;;;9.45;4.32;;;;;;;16.81;70.24;100752.16;6130899;23;114916;-84
2023/11/19 01:35:09;;;;;;;14.18;4.22;;;;;;;16.82;70.21;100754.75;6134962;23;115660;-82
2023/11/19 01:37:36;;;;;;;12.35;3.72;;;;;;;16.82;70.18;100749.41;6132619;23;123088;-82
2023/11/19 01:40:06;;;;;;;13.18;3.80;;;;;;;16.83;70.00;100735.06;6131981;23;122779;-81
2023/11/19 01:42:40;;;;;;;12.02;3.83;;;;;;;16.83;70.02;100732.38;6108142;23;112336;-80
2023/11/19 01:45:09;;;;;;;13.00;3.75;;;;;;;16.84;69.86;100730.56;6133569;23;113384;-80
2023/11/19 01:47:37;;;;;;;11.90;3.30;;;;;;;16.84;69.86;100736.78;6132346;23;124838;-82
2023/11/19 01:50:06;;;;;;;12.32;3.50;;;;;;;16.84;69.93;100739.47;6109015;23;122569;-80
2023/11/19 01:52:38;;;;;;;8.73;3.30;;;;;;;16.83;69.69;100745.75;6134872;23;113583;-81
2023/11/19 01:55:10;;;;;;;14.73;3.55;;;;;;;16.83;69.92;100740.41;6134424;23;113516;-80
2023/11/19 01:57:38;;;;;;;14.77;3.72;;;;;;;16.82;69.69;100733.38;6134228;23;124706;-82
2023/11/19 02:00:11;;;;;;;11.20;3.40;;;;;;;16.82;69.74;100741.38;6131485;23;123944;-82
2023/11/19 02:02:44;;;;;;;10.32;3.58;;;;;;;16.82;69.60;100738.72;6132732;23;113860;-82
2023/11/19 02:05:13;;;;;;;14.15;3.17;;;;;;;16.82;69.60;100730.69;6133230;23;112464;-81
2023/11/19 02:07:40;;;;;;;8.18;3.05;;;;;;;16.82;69.40;100733.38;6134641;23;123851;-80
2023/11/19 02:10:14;;;;;;;11.45;3.20;;;;;;;16.81;69.53;100734.28;6134419;23;123308;-80
2023/11/19 02:12:44;;;;;;;12.48;2.90;;;;;;;16.81;69.49;100731.63;6133792;23;113609;-82
2023/11/19 02:15:12;;;;;;;11.73;3.42;;;;;;;16.80;69.29;100729.91;6136001;23;113029;-79
2023/11/19 02:17:39;;;;;;;15.85;3.45;;;;;;;16.77;69.18;100719.44;6135478;23;123852;-81
2023/11/19 02:20:11;;;;;;;14.27;3.38;;;;;;;16.75;69.42;100724.03;6142196;23;123018;-81
2023/11/19 02:22:38;;;;;;;17.02;3.22;;;;;;;16.73;69.29;100729.50;6117966;23;113611;-82
2023/11/19 02:25:12;;;;;;;13.63;3.45;;;;;;;16.72;69.04;100726.94;6117298;23;114576;-83
2023/11/19 02:27:51;;;;;;;13.63;2.97;;;;;;;16.70;69.10;100729.72;6143244;22;124690;-82
2023/11/19 02:30:18;;;;;;;12.75;3.22;;;;;;;16.69;69.00;100732.53;6141515;23;124842;-80
2023/11/19 02:32:46;;;;;;;16.17;3.45;;;;;;;16.67;68.72;100734.44;6142986;23;115099;-81
2023/11/19 02:35:13;;;;;;;20.13;3.55;;;;;;;16.66;68.87;100735.41;6117383;23;111980;-81
2023/11/19 02:37:40;;;;;;;10.25;2.92;;;;;;;16.63;68.51;100722.25;6142739;23;124023;-80
2023/11/19 02:40:09;;;;;;;18.45;3.78;;;;;;;16.63;68.86;100722.25;6142101;23;122783;-82
2023/11/19 02:42:37;;;;;;;12.38;3.47;;;;;;;16.60;68.87;100718.00;6143701;23;113745;-82
2023/11/19 02:45:06;;;;;;;12.27;3.83;;;;;;;16.60;68.58;100709.13;6140729;23;114572;-80
2023/11/19 02:47:34;;;;;;;19.08;3.30;;;;;;;16.60;68.72;100719.81;6106948;23;122440;-81
2023/11/19 02:50:02;;;;;;;14.63;3.60;;;;;;;16.60;68.74;100722.50;6131800;23;122072;-82
2023/11/19 02:52:29;;;;;;;13.68;3.38;;;;;;;16.58;68.50;100724.41;6132192;23;114746;-80
2023/11/19 02:54:57;;;;;;;15.10;3.67;;;;;;;16.57;68.57;100712.00;6155669;22;114395;-81
2023/11/19 02:57:24;;;;;;;17.30;4.00;;;;;;;16.55;68.53;100742.38;6131561;23;123290;-82
2023/11/19 02:59:52;;;;;;;13.68;4.15;;;;;;;16.55;68.39;100720.13;6130084;23;122232;-82
2023/11/19 03:02:19;;;;;;;18.90;3.95;;;;;;;16.54;68.41;100724.63;6132197;23;113934;-83
2023/11/19 03:04:47;;;;;;;20.55;4.32;;;;;;;16.55;68.17;100720.97;6107858;23;112815;-82
2023/11/19 03:07:14;;;;;;;20.88;4.50;;;;;;;16.54;68.04;100724.63;6139025;23;124767;-81
2023/11/19 03:09:41;;;;;;;21.88;4.10;;;;;;;16.54;67.85;100724.63;6142234;23;124454;-82
2023/11/19 03:12:08;;;;;;;19.13;4.22;;;;;;;16.55;67.92;100731.66;6140055;23;114528;-83
2023/11/19 03:14:36;;;;;;;25.67;4.80;;;;;;;16.54;67.81;100729.13;6112796;23;113286;-82
2023/11/19 03:17:04;;;;;;;18.40;3.85;;;;;;;16.53;67.57;100730.94;6141420;23;125096;-84
2023/11/19 03:19:32;;;;;;;20.70;4.65;;;;;;;16.53;67.55;100728.25;6120411;22;123466;-83
2023/11/19 03:22:01;;;;;;;17.65;4.22;;;;;;;16.49;67.77;100721.44;6140686;23;115135;-84
2023/11/19 03:24:29;;;;;;;20.80;4.00;;;;;;;16.49;67.37;100724.09;6141546;23;113658;-82
2023/11/19 03:26:56;;;;;;;21.17;4.18;;;;;;;16.46;67.39;100716.31;6139957;23;123970;-83
2023/11/19 03:29:23;;;;;;;21.27;4.07;;;;;;;16.46;67.25;100732.34;6141908;23;124742;-83
2023/11/19 03:31:50;;;;;;;20.50;4.22;;;;;;;16.42;67.01;100736.19;6142107;23;114032;-84
2023/11/19 03:34:18;;;;;;;22.23;4.47;;;;;;;16.39;66.99;100731.09;6167117;22;114467;-81
2023/11/19 03:36:46;;;;;;;26.85;4.07;;;;;;;16.35;66.87;100713.56;6141395;23;122049;-84
2023/11/19 03:39:13;;;;;;;21.13;3.97;;;;;;;16.30;66.88;100721.03;6140950;23;123220;-82
2023/11/19 03:41:40;;;;;;;18.00;4.07;;;;;;;16.25;66.89;100717.84;6125539;23;113747;-82
2023/11/19 03:44:08;;;;;;;20.17;4.40;;;;;;;16.21;66.88;100721.69;6120647;23;112830;-82
2023/11/19 03:46:36;;;;;;;22.17;4.05;;;;;;;16.15;66.63;100721.16;6120046;23;123174;-82
2023/11/19 03:49:04;;;;;;;22.77;4.20;;;;;;;16.10;66.63;100720.63;6120255;23;124125;-82
2023/11/19 03:51:34;;;;;;;22.00;4.10;;;;;;;16.06;66.63;100721.78;6096961;23;115003;-83
2023/11/19 03:54:02;;;;;;;23.17;3.75;;;;;;;16.01;66.69;100710.59;6124496;23;112909;-83
2023/11/19 03:56:30;;;;;;;24.67;4.15;;;;;;;15.94;66.45;100703.97;6144895;23;122512;-84
2023/11/19 03:58:58;;;;;;;22.10;3.75;;;;;;;15.89;66.39;100703.44;6123919;22;123135;-81
2023/11/19 04:01:25;;;;;;;21.23;4.05;;;;;;;15.85;66.62;100715.28;6121485;23;115115;-82
2023/11/19 04:03:52;;;;;;;21.95;4.10;;;;;;;15.79;66.59;100718.41;6120663;23;114443;-81
2023/11/19 04:06:19;;;;;;;27.38;4.05;;;;;;;15.75;66.66;100721.25;6123591;23;123759;-81
2023/11/19 04:08:46;;;;;;;21.27;3.83;;;;;;;15.73;66.56;100715.19;6121826;23;124376;-81
2023/11/19 04:11:14;;;;;;;24.02;3.63;;;;;;;15.69;66.54;100716.31;6119562;23;113567;-82
2023/11/19 04:13:41;;;;;;;22.20;3.78;;;;;;;15.66;66.37;100719.19;6121182;23;113753;-82
2023/11/19 04:16:09;;;;;;;23.35;3.83;;;;;;;15.63;66.24;100727.41;6120743;23;122532;-81
2023/11/19 04:18:36;;;;;;;28.33;3.97;;;;;;;15.60;66.33;100727.63;6096764;23;123293;-82
2023/11/19 04:21:06;;;;;;;31.98;4.38;;;;;;;15.58;66.40;100737.56;6121093;23;114405;-82
2023/11/19 04:23:33;;;;;;;24.50;4.15;;;;;;;15.55;66.18;100724.41;6096549;23;112505;-80
2023/11/19 04:26:04;;;;;;;30.45;4.57;;;;;;;15.52;66.21;100730.81;6119631;23;123226;-81
2023/11/19 04:28:34;;;;;;;29.27;4.18;;;;;;;15.50;66.24;100726.53;6119456;23;122230;-80
2023/11/19 04:31:03;;;;;;;28.88;4.30;;;;;;;15.47;66.18;100732.94;6120724;23;113395;-82
2023/11/19 04:33:30;;;;;;;29.88;4.35;;;;;;;15.46;66.11;100738.38;6122773;23;113926;-81
2023/11/19 04:35:57;;;;;;;25.83;4.47;;;;;;;15.44;66.13;100742.97;6119472;23;122898;-81
2023/11/19 04:38:26;;;;;;;24.83;3.72;;;;;;;15.40;66.24;100752.13;6145694;22;123736;-81
2023/11/19 04:40:53;;;;;;;29.63;4.75;;;;;;;15.40;66.15;100762.81;6122292;23;113703;-81
2023/11/19 04:43:21;;;;;;;35.05;4.28;;;;;;;15.36;66.26;100757.66;6122538;23;114166;-80
2023/11/19 04:45:48;;;;;;;27.00;4.43;;;;;;;15.34;66.08;100756.91;6123620;23;124746;-81
2023/11/19 04:48:15;;;;;;;22.83;4.47;;;;;;;15.32;66.24;100758.84;6121248;23;123703;-81
2023/11/19 04:50:42;;;;;;;30.13;4.28;;;;;;;15.31;66.19;100748.25;6121141;23;115548;-82
2023/11/19 04:53:10;;;;;;;23.13;4.50;;;;;;;15.30;66.20;100747.41;6146894;22;115618;-81
2023/11/19 04:55:37;;;;;;;28.30;3.95;;;;;;;15.28;66.05;100749.31;6122846;23;123013;-80
2023/11/19 04:58:04;;;;;;;28.25;4.10;;;;;;;15.26;66.06;100745.91;6121009;23;123985;-81
2023/11/19 05:00:32;;;;;;;31.25;4.07;;;;;;;15.24;66.11;100747.81;6123742;23;114123;-82
2023/11/19 05:02:59;;;;;;;27.40;4.60;;;;;;;15.25;65.92;100749.53;6123659;23;113834;-81
2023/11/19 05:05:27;;;;;;;27.05;4.25;;;;;;;15.24;66.11;100753.16;6122511;23;125184;-82
2023/11/19 05:07:54;;;;;;;29.42;4.95;;;;;;;15.23;66.22;100751.44;6120896;23;122853;-80
2023/11/19 05:10:22;;;;;;;26.20;4.07;;;;;;;15.24;65.71;100752.28;6145833;22;113944;-80
2023/11/19 05:12:49;;;;;;;25.20;5.05;;;;;;;15.21;65.78;100753.34;6096514;23;113778;-80
2023/11/19 05:15:17;;;;;;;27.58;4.47;;;;;;;15.23;65.79;100756.78;6096239;23;122567;-82
2023/11/19 05:17:45;;;;;;;26.40;4.50;;;;;;;15.22;65.71;100755.06;6122873;23;124170;-81
2023/11/19 05:20:16;;;;;;;28.27;4.47;;;;;;;15.21;65.66;100753.34;6123147;23;113564;-81
2023/11/19 05:22:43;;;;;;;29.00;5.30;;;;;;;15.20;65.63;100762.34;6119365;23;112562;-81
2023/11/19 05:25:10;;;;;;;25.98;4.55;;;;;;;15.19;65.58;100760.59;6125171;23;123520;-80
2023/11/19 05:27:38;;;;;;;27.38;4.45;;;;;;;15.17;65.55;100757.19;6125726;23;124408;-81
2023/11/19 05:30:07;;;;;;;26.90;4.65;;;;;;;15.16;65.83;100750.13;6126744;23;114610;-82
2023/11/19 05:32:34;;;;;;;20.38;4.38;;;;;;;15.15;65.60;100743.09;6126276;23;113771;-81
2023/11/19 05:35:02;;;;;;;33.03;4.80;;;;;;;15.16;65.49;100755.47;6125591;23;123043;-83
2023/11/19 05:37:30;;;;;;;32.95;4.80;;;;;;;15.15;65.48;100748.44;6124764;23;123294;-81
2023/11/19 05:39:57;;;;;;;30.13;4.40;;;;;;;15.14;65.50;100757.38;6131050;23;114860;-81
2023/11/19 05:42:24;;;;;;;29.77;4.25;;;;;;;15.13;65.43;100750.34;6151552;22;113541;-81
2023/11/19 05:44:51;;;;;;;32.95;4.82;;;;;;;15.12;65.35;100743.28;6099028;23;122444;-81
2023/11/19 05:47:19;;;;;;;31.17;5.00;;;;;;;15.11;65.39;100753.09;6126610;23;123951;-81
2023/11/19 05:49:46;;;;;;;26.40;4.50;;;;;;;15.09;65.47;100755.03;6134959;23;112467;-80
2023/11/19 05:52:13;;;;;;;27.35;4.22;;;;;;;15.08;65.31;100763.13;6140318;23;113578;-83
2023/11/19 05:54:41;;;;;;;30.73;4.78;;;;;;;15.05;65.29;100768.63;6141667;22;124288;-82
2023/11/19 05:57:09;;;;;;;29.52;4.78;;;;;;;15.04;65.38;100769.63;6142657;23;124392;-81
2023/11/19 05:59:36;;;;;;;27.60;4.28;;;;;;;15.04;65.36;100766.94;6144967;22;116271;-81
2023/11/19 06:02:04;;;;;;;22.52;4.28;;;;;;;15.03;65.31;100770.56;6145981;22;114148;-82
2023/11/19 06:04:31;;;;;;;29.92;4.45;;;;;;;15.02;65.45;100768.88;6143269;22;124628;-84
2023/11/19 06:06:58;;;;;;;26.95;4.22;;;;;;;15.02;65.31;100769.72;6144773;22;124256;-81
2023/11/19 06:09:25;;;;;;;28.83;4.65;;;;;;;15.01;65.26;100775.13;6145290;22;114771;-84
2023/11/19 06:11:53;;;;;;;26.75;4.72;;;;;;;14.99;65.24;100776.13;6144248;23;114886;-83
2023/11/19 06:14:20;;;;;;;31.15;4.90;;;;;;;14.99;65.29;100770.78;6145744;22;124730;-82
2023/11/19 06:16:47;;;;;;;29.80;4.63;;;;;;;14.98;65.26;100769.03;6143901;22;125010;-81
2023/11/19 06:19:14;;;;;;;24.17;4.25;;;;;;;14.97;65.26;100771.81;6120283;22;113691;-83
2023/11/19 06:21:41;;;;;;;28.48;4.38;;;;;;;14.95;65.10;100769.22;6147116;22;115462;-81
2023/11/19 06:24:09;;;;;;;23.35;4.40;;;;;;;14.94;65.03;100778.22;6146521;22;124982;-80
2023/11/19 06:26:36;;;;;;;24.63;4.10;;;;;;;14.93;64.98;100764.97;6146219;22;125003;-82
2023/11/19 06:29:03;;;;;;;25.10;4.30;;;;;;;14.93;65.05;100759.63;6147208;22;115208;-83
2023/11/19 06:31:30;;;;;;;27.92;4.30;;;;;;;14.93;64.96;100764.97;6146808;22;115882;-81
2023/11/19 06:33:57;;;;;;;31.77;4.45;;;;;;;14.92;64.98;100768.59;6147219;22;124665;-81
2023/11/19 06:36:26;;;;;;;33.05;4.75;;;;;;;14.90;64.83;100766.03;6145561;22;123460;-79
2023/11/19 06:38:53;;;;;;;28.85;4.68;;;;;;;14.87;64.94;100771.56;6146601;22;113862;-82
2023/11/19 06:41:21;;;;;;;26.38;4.80;;;;;;;14.86;64.86;100769.84;6145978;22;113551;-82
2023/11/19 06:43:48;;;;;;;25.88;4.10;;;;;;;14.84;64.71;100766.41;6146022;22;124799;-81
2023/11/19 06:46:16;;;;;;;29.40;4.50;;;;;;;14.81;64.77;100766.63;6147278;22;124256;-82
2023/11/19 06:48:45;;;;;;;30.60;4.78;;;;;;;14.80;65.08;100764.91;6147373;22;114472;-81
2023/11/19 06:51:12;;;;;;;29.13;4.43;;;;;;;14.77;64.96;100763.28;6146821;22;114302;-81
2023/11/19 06:53:40;;;;;;;27.67;4.15;;;;;;;14.77;65.09;100755.28;6144818;22;125630;-80
2023/11/19 06:56:21;;;;;;;33.95;4.25;;;;;;;14.75;65.01;100761.69;6138333;23;124537;-80
2023/11/19 06:58:49;;;;;;;30.63;4.35;;;;;;;14.75;65.08;100783.00;6144464;22;114662;-79
2023/11/19 07:01:18;;;;;;;26.92;4.15;;;;;;;14.74;65.19;100775.97;6136755;22;114797;-79
2023/11/19 07:03:48;;;;;;;29.15;4.00;;;;;;;14.73;65.29;100784.91;6135548;22;124389;-79
2023/11/19 07:06:16;;;;;;;25.23;4.22;;;;;;;14.72;65.26;100793.88;6142099;23;125356;-79
2023/11/19 07:08:47;;;;;;;26.25;4.47;;;;;;;14.71;65.10;100798.34;6143159;22;115004;-80
2023/11/19 07:11:16;;;;;;;26.45;5.10;;;;;;;14.72;65.16;100809.84;6141021;23;113514;-80
2023/11/19 07:13:45;;;;;;;19.38;3.83;;;;;;;14.71;65.18;100813.47;6141552;22;124938;-80
2023/11/19 07:16:14;;;;;;;31.77;4.70;;;;;;;14.69;65.09;100804.72;6141724;22;124764;-81
2023/11/19 07:18:43;;;;;;;24.70;4.68;;;;;;;14.69;65.16;100816.25;6141983;22;115511;-80
2023/11/19 07:21:11;;;;;;;26.23;4.05;;;;;;;14.68;65.07;100816.34;6140300;23;115859;-79
2023/11/19 07:23:38;;;;;;;20.17;3.30;;;;;;;14.67;65.26;100811.94;6142506;22;125568;-79
2023/11/19 07:26:08;;;;;;;24.23;3.67;;;;;;;14.66;65.06;100816.44;6139635;23;124719;-80
2023/11/19 07:28:35;;;;;;;26.27;4.40;;;;;;;14.67;65.08;100817.28;6137975;23;114117;-79
2023/11/19 07:31:02;;;;;;;28.88;3.85;;;;;;;14.67;65.09;100827.94;6136918;23;115437;-79
2023/11/19 07:33:30;;;;;;;24.35;4.93;;;;;;;14.67;65.20;100822.63;6137566;23;123667;-79
2023/11/19 07:35:57;;;;;;;29.88;4.35;;;;;;;14.66;65.37;100826.25;6135860;23;124540;-79
2023/11/19 07:38:24;;;;;;;28.13;4.35;;;;;;;14.67;65.27;100818.13;6126902;23;113805;-79
2023/11/19 07:40:51;;;;;;;27.85;3.75;;;;;;;14.70;65.10;100833.09;6133340;23;113091;-79
2023/11/19 07:43:21;;;;;;;28.67;4.68;;;;;;;14.69;65.12;100832.25;6126324;23;125725;-79
2023/11/19 07:45:49;;;;;;;30.67;4.35;;;;;;;14.70;65.08;100835.75;6133224;22;123244;-79
2023/11/19 07:48:17;;;;;;;28.52;4.20;;;;;;;14.70;65.14;100844.59;6139375;22;114823;-80
2023/11/19 07:50:45;;;;;;;31.73;5.07;;;;;;;14.73;65.15;100843.53;6138826;22;114686;-78
2023/11/19 07:53:12;;;;;;;30.00;4.63;;;;;;;14.73;65.04;100832.88;6140318;23;123376;-79
2023/11/19 07:55:40;;;;;;;30.55;4.50;;;;;;;14.73;65.08;100843.53;6141795;22;124844;-79
2023/11/19 07:58:09;;;;;;;27.45;4.50;;;;;;;14.74;64.99;100839.94;6139771;22;114190;-81
2023/11/19 08:00:37;;;;;;;29.92;5.05;;;;;;;14.74;65.13;100834.63;6138608;22;113458;-80
2023/11/19 08:03:04;;;;;;;23.90;3.95;;;;;;;14.76;64.91;100830.03;6140794;22;123652;-79
2023/11/19 08:05:32;;;;;;;25.95;4.60;;;;;;;14.76;65.02;100832.69;6139629;22;124357;-80
2023/11/19 08:07:59;;;;;;;27.25;4.22;;;;;;;14.78;64.82;100833.47;6140097;22;115779;-80
2023/11/19 08:10:26;;;;;;;31.02;4.50;;;;;;;14.81;64.82;100835.09;6129802;23;116749;-80
2023/11/19 08:12:54;;;;;;;25.70;4.00;;;;;;;14.81;64.94;100835.94;6135967;23;126158;-81
2023/11/19 08:15:21;;;;;;;26.70;4.38;;;;;;;14.83;64.93;100839.38;6137439;23;122229;-80
2023/11/19 08:17:51;;;;;;;30.38;4.05;;;;;;;14.84;64.81;100841.06;6136372;23;114270;-81
2023/11/19 08:20:18;;;;;;;24.83;4.75;;;;;;;14.86;64.75;100844.53;6132847;23;113347;-80
2023/11/19 08:22:46;;;;;;;35.10;4.82;;;;;;;14.87;64.87;100848.88;6140120;22;123844;-82
2023/11/19 08:25:13;;;;;;;22.30;4.00;;;;;;;14.89;64.90;100849.63;6140212;22;123506;-81
2023/11/19 08:27:40;;;;;;;28.85;4.53;;;;;;;14.92;64.81;100844.13;6140601;23;114239;-80
2023/11/19 08:30:08;;;;;;;32.70;3.97;;;;;;;14.97;64.99;100858.03;6142110;23;113489;-81
2023/11/19 08:32:35;;;;;;;28.02;4.28;;;;;;;15.01;64.91;100839.16;6136882;23;126086;-80
2023/11/19 08:35:03;;;;;;;30.67;4.25;;;;;;;15.05;64.69;100843.31;6132601;23;124641;-81
2023/11/19 08:37:31;;;;;;;31.17;4.47;;;;;;;15.08;64.71;100837.81;6137917;23;115000;-80
2023/11/19 08:39:58;;;;;;;27.13;4.28;;;;;;;15.10;64.71;100846.56;6110406;23;112465;-80
2023/11/19 08:42:25;;;;;;;25.83;3.88;;;;;;;15.14;64.57;100842.75;6133317;23;123822;-81
2023/11/19 08:44:54;;;;;;;29.08;4.13;;;;;;;15.16;64.69;100848.84;6130137;23;123798;-81
2023/11/19 08:47:22;;;;;;;29.40;4.35;;;;;;;15.18;64.64;100841.59;6127562;23;114652;-79
2023/11/19 08:49:53;;;;;;;25.08;4.38;;;;;;;15.23;64.56;100847.50;6125636;23;114113;-81
2023/11/19 08:52:23;;;;;;;27.48;4.18;;;;;;;15.26;64.74;100851.78;6122470;23;124401;-80
2023/11/19 08:54:50;;;;;;;25.83;4.00;;;;;;;15.32;64.71;100856.72;6125237;23;123552;-81
2023/11/19 08:57:17;;;;;;;30.73;4.50;;;;;;;15.37;64.44;100859.97;6121833;23;115777;-80
2023/11/19 08:59:45;;;;;;;22.98;4.38;;;;;;;15.42;64.58;100846.31;6121446;23;115443;-79
2023/11/19 09:02:13;;;;;;;25.13;4.22;;;;;;;15.45;64.40;100854.13;6096450;23;123238;-80
2023/11/19 09:04:41;;;;;;;25.00;4.28;;;;;;;15.49;64.31;100859.13;6120698;23;123087;-82
2023/11/19 09:07:09;;;;;;;28.08;4.18;;;;;;;15.51;64.46;100867.06;6145243;22;114000;-81
2023/11/19 09:09:37;;;;;;;26.58;4.25;;;;;;;15.53;64.11;100860.66;6121032;23;114532;-81
2023/11/19 09:12:04;;;;;;;29.33;4.40;;;;;;;15.58;64.08;100857.69;6119872;23;123662;-80
2023/11/19 09:14:31;;;;;;;28.85;4.38;;;;;;;15.61;64.04;100862.81;6120630;23;124997;-80
2023/11/19 09:16:59;;;;;;;25.17;3.85;;;;;;;15.63;64.03;100844.88;6120519;23;113344;-82
2023/11/19 09:19:26;;;;;;;29.52;4.38;;;;;;;15.68;64.08;100852.59;6122569;23;112983;-81
2023/11/19 09:21:54;;;;;;;29.33;4.55;;;;;;;15.70;63.88;100862.19;6122635;23;123792;-80
2023/11/19 09:24:21;;;;;;;28.90;4.68;;;;;;;15.73;64.03;100854.03;6120736;23;123994;-80
2023/11/19 09:26:48;;;;;;;30.30;4.60;;;;;;;15.76;63.88;100861.84;6123715;23;115370;-81
2023/11/19 09:29:16;;;;;;;35.92;4.53;;;;;;;15.77;63.93;100858.22;6120387;23;113647;-79
2023/11/19 09:31:43;;;;;;;29.10;4.55;;;;;;;15.80;63.75;100856.28;6121807;23;123147;-81
2023/11/19 09:34:10;;;;;;;26.48;4.60;;;;;;;15.82;63.70;100859.72;6120626;23;123352;-80
2023/11/19 09:36:38;;;;;;;27.27;4.72;;;;;;;15.83;63.43;100866.78;6123044;23;114468;-79
2023/11/19 09:39:08;;;;;;;32.58;4.57;;;;;;;15.85;63.63;100859.50;6120813;23;113645;-81
2023/11/19 09:41:35;;;;;;;28.33;4.72;;;;;;;15.86;63.54;100862.09;6121463;23;124334;-82
2023/11/19 09:44:02;;;;;;;31.92;5.20;;;;;;;15.87;63.52;100857.59;6122469;23;124392;-80
2023/11/19 09:46:30;;;;;;;28.67;4.22;;;;;;;15.89;63.48;100855.66;6123407;23;115533;-80
2023/11/19 09:48:59;;;;;;;25.38;4.47;;;;;;;15.92;63.61;100839.44;6121433;23;114505;-82
2023/11/19 09:51:26;;;;;;;28.15;4.32;;;;;;;15.97;63.49;100853.34;6120081;23;123148;-84
2023/11/19 09:53:53;;;;;;;24.33;4.43;;;;;;;16.00;63.57;100858.47;6120161;23;123570;-80
2023/11/19 09:56:22;;;;;;;23.20;4.15;;;;;;;16.04;63.45;100854.63;6121118;23;114136;-80
2023/11/19 09:58:50;;;;;;;24.02;4.60;;;;;;;16.08;63.50;100849.94;6120613;23;112649;-81
2023/11/19 10:01:17;;;;;;;24.50;4.85;;;;;;;16.12;63.42;100846.97;6123162;23;124465;-81
2023/11/19 10:03:55;;;;;;;25.80;4.72;;;;;;;16.17;63.38;100837.78;6098532;23;124333;-80
2023/11/19 10:06:26;;;;;;;27.83;4.32;;;;;;;16.20;63.33;100845.56;6120298;23;113633;-82
2023/11/19 10:08:55;;;;;;;26.17;4.45;;;;;;;16.25;63.31;100856.81;6122920;23;113488;-80
2023/11/19 10:11:22;;;;;;;36.22;5.50;;;;;;;16.29;63.04;100850.28;6121819;23;123590;-81
2023/11/19 10:13:49;;;;;;;26.88;4.32;;;;;;;16.30;63.21;100838.63;6095946;23;123990;-81
2023/11/19 10:16:17;;;;;;;33.13;4.28;;;;;;;16.33;63.07;100838.41;6122464;23;114560;-82
2023/11/19 10:18:46;;;;;;;28.52;5.32;;;;;;;16.33;62.93;100833.94;6144719;22;113995;-81
2023/11/19 10:21:17;;;;;;;27.75;4.70;;;;;;;16.35;62.87;100825.81;6119553;23;123114;-81
2023/11/19 10:23:50;;;;;;;25.58;4.18;;;;;;;16.40;62.61;100834.34;6117801;23;123240;-81
2023/11/19 10:26:18;;;;;;;25.67;4.55;;;;;;;16.44;62.68;100825.16;6121070;23;114713;-80
2023/11/19 10:28:47;;;;;;;26.88;5.38;;;;;;;16.49;62.68;100822.16;6121168;23;113822;-80
2023/11/19 10:31:18;;;;;;;22.23;4.25;;;;;;;16.54;62.43;100826.22;6119153;23;124348;-81
2023/11/19 10:33:45;;;;;;;25.30;4.65;;;;;;;16.59;62.32;100838.41;6118509;23;124835;-81
2023/11/19 10:36:13;;;;;;;24.77;4.32;;;;;;;16.61;62.22;100836.50;6118793;23;115803;-80
2023/11/19 10:38:50;;;;;;;21.83;4.45;;;;;;;16.64;62.17;100847.81;6118838;23;114609;-82
2023/11/19 10:41:28;;;;;;;26.65;4.32;;;;;;;16.69;62.14;100844.84;6118668;23;124216;-81
2023/11/19 10:43:55;;;;;;;27.60;4.35;;;;;;;16.75;62.28;100833.69;6119784;23;123627;-81
2023/11/19 10:46:37;;;;;;;28.58;3.90;;;;;;;16.76;61.78;100835.41;6119722;23;113824;-82
2023/11/19 10:49:05;;;;;;;27.73;4.50;;;;;;;16.77;61.86;100826.41;6142624;22;114457;-81
2023/11/19 10:51:33;;;;;;;24.35;4.13;;;;;;;16.78;61.77;100822.75;6118070;23;124594;-80
2023/11/19 10:54:06;;;;;;;26.58;4.78;;;;;;;16.80;61.56;100820.88;6119361;23;124338;-82
2023/11/19 10:56:34;;;;;;;24.45;4.18;;;;;;;16.82;61.57;100820.72;6093174;23;113653;-80
2023/11/19 10:59:03;;;;;;;27.63;4.82;;;;;;;16.83;61.48;100820.66;6119964;23;114428;-81
2023/11/19 11:01:44;;;;;;;23.73;4.22;;;;;;;16.87;61.46;100816.78;6116770;23;124646;-82
2023/11/19 11:04:17;;;;;;;26.70;4.40;;;;;;;16.89;61.42;100820.19;6119184;23;123531;-81
2023/11/19 11:06:45;;;;;;;19.58;2.88;;;;;;;16.95;61.59;100802.00;6120629;23;113439;-81
2023/11/19 11:09:15;;;;;;;17.58;3.70;;;;;;;16.99;61.40;100814.19;6095381;23;114127;-81
2023/11/19 11:11:46;;;;;;;20.80;3.63;;;;;;;17.03;61.36;100813.03;6143676;22;124062;-80
2023/11/19 11:14:16;;;;;;;18.55;3.47;;;;;;;17.05;61.42;100808.41;6119202;23;124063;-81